createdAt,value
2023-02-11T00:01:31.174Z,99195.09
2023-02-11T00:04:00.331Z,99194.22
2023-02-11T00:06:30.026Z,99188.16
2023-02-11T00:08:58.537Z,99189.91
2023-02-11T00:11:30.379Z,99174.31
2023-02-11T00:13:58.926Z,99184.69
2023-02-11T00:16:28.931Z,99180.38
2023-02-11T00:18:57.230Z,99184.69
2023-02-11T00:21:26.818Z,99190.75
2023-02-11T00:23:57.174Z,99163.97
2023-02-11T00:26:27.165Z,99186.44
2023-02-11T00:28:55.575Z,99182.13
2023-02-11T00:31:24.433Z,99180.38
2023-02-11T00:33:54.508Z,99171.72
2023-02-11T00:36:25.000Z,99177.78
2023-02-11T00:38:54.252Z,99169.13
2023-02-11T00:41:23.020Z,99182.09
2023-02-11T00:43:51.433Z,99144.94
2023-02-11T00:46:19.368Z,99180.38
2023-02-11T00:48:47.807Z,99170.84
2023-02-11T00:51:17.246Z,99172.56
2023-02-11T00:53:45.200Z,99167.41
2023-02-11T00:56:13.327Z,99163.94
2023-02-11T00:58:41.731Z,99173.47
2023-02-11T01:01:09.805Z,99165.66
2023-02-11T01:03:38.144Z,99172.59
2023-02-11T01:06:06.943Z,99165.66
2023-02-11T01:08:37.343Z,99168.25
2023-02-11T01:11:07.215Z,99171.72
2023-02-11T01:13:37.225Z,99170.88
2023-02-11T01:16:08.435Z,99153.59
2023-02-11T01:18:37.368Z,99160.47
2023-02-11T01:21:06.210Z,99155.31
2023-02-11T01:23:34.061Z,99161.34
2023-02-11T01:26:03.174Z,99112.97
2023-02-11T01:28:31.575Z,99156.16
2023-02-11T01:30:59.470Z,99148.38
2023-02-11T01:33:27.414Z,99145.75
2023-02-11T01:35:55.199Z,99143.16
2023-02-11T01:38:25.063Z,99138.00
2023-02-11T01:40:55.424Z,99150.09
2023-02-11T01:43:26.082Z,99138.88
2023-02-11T01:45:59.875Z,99143.19
2023-02-11T01:48:30.616Z,99138.88
2023-02-11T01:51:01.540Z,99136.28
2023-02-11T01:53:48.425Z,99140.63
2023-02-11T01:56:34.809Z,99087.91
2023-02-11T01:59:07.317Z,99123.31
2023-02-11T02:01:35.945Z,99125.03
2023-02-11T02:04:05.645Z,99125.88
2023-02-11T02:06:36.147Z,99087.91
2023-02-11T02:09:07.248Z,99114.66
2023-02-11T02:11:35.007Z,99118.97
2023-02-11T02:14:04.372Z,99112.06
2023-02-11T02:16:35.471Z,99122.44
2023-02-11T02:19:19.047Z,99115.50
2023-02-11T02:22:14.313Z,99115.50
2023-02-11T02:25:01.165Z,99091.31
2023-02-11T02:27:37.330Z,99099.94
2023-02-11T02:30:21.572Z,99098.16
2023-02-11T02:33:02.145Z,99090.38
2023-02-11T02:35:39.168Z,99092.94
2023-02-11T02:38:09.949Z,99101.59
2023-02-11T02:40:42.896Z,99103.31
2023-02-11T02:43:11.814Z,99099.88
2023-02-11T02:45:39.586Z,99113.72
2023-02-11T02:48:08.750Z,99111.13
2023-02-11T02:50:37.846Z,99105.91
2023-02-11T02:53:14.056Z,99103.31
2023-02-11T02:55:53.743Z,99101.56
2023-02-11T02:58:40.212Z,99092.06
2023-02-11T03:01:16.295Z,99094.63
2023-02-11T03:03:50.891Z,99100.69
2023-02-11T03:06:22.041Z,99096.34
2023-02-11T03:08:54.045Z,99085.06
2023-02-11T03:11:22.880Z,99082.41
2023-02-11T03:13:51.515Z,99085.88
2023-02-11T03:16:22.457Z,99087.59
2023-02-11T03:18:54.452Z,99088.44
2023-02-11T03:21:22.961Z,99082.34
2023-02-11T03:23:52.714Z,99078.06
2023-02-11T03:26:25.067Z,99073.78
2023-02-11T03:28:56.287Z,99078.97
2023-02-11T03:31:33.134Z,99075.50
2023-02-11T03:34:08.704Z,99058.19
2023-02-11T03:36:41.065Z,99066.81
2023-02-11T03:39:10.485Z,99066.81
2023-02-11T03:41:38.674Z,99068.50
2023-02-11T03:44:07.435Z,99052.84
2023-02-11T03:46:39.048Z,99038.16
2023-02-11T03:49:11.135Z,99032.13
2023-02-11T03:51:39.867Z,99030.38
2023-02-11T03:54:11.671Z,99030.41
2023-02-11T03:56:51.003Z,99032.19
2023-02-11T03:59:19.121Z,99026.19
2023-02-11T04:01:47.051Z,99014.13
2023-02-11T04:04:16.681Z,99009.00
2023-02-11T04:06:44.686Z,99003.03
2023-02-11T04:09:12.903Z,98993.53
2023-02-11T04:11:40.637Z,99008.31
2023-02-11T04:14:08.368Z,99013.50
2023-02-11T04:16:36.145Z,99015.25
2023-02-11T04:19:03.970Z,99019.56
2023-02-11T04:21:33.081Z,99027.34
2023-02-11T04:24:00.861Z,99034.28
2023-02-11T04:26:28.658Z,99045.53
2023-02-11T04:28:56.378Z,99036.03
2023-02-11T04:31:24.206Z,99022.19
2023-02-11T04:33:52.067Z,99025.56
2023-02-11T04:36:19.810Z,99023.78
2023-02-11T04:38:49.273Z,99028.09
2023-02-11T04:41:17.138Z,99035.84
2023-02-11T04:43:44.980Z,99037.53
2023-02-11T04:46:12.902Z,99035.81
2023-02-11T04:48:41.199Z,99046.16
2023-02-11T04:51:08.985Z,99047.88
2023-02-11T04:53:36.722Z,99038.34
2023-02-11T04:56:06.371Z,99034.88
2023-02-11T04:58:34.133Z,99032.22
2023-02-11T05:01:07.352Z,99037.38
2023-02-11T05:03:35.267Z,99026.19
2023-02-11T05:06:03.107Z,99030.41
2023-02-11T05:08:31.103Z,99035.63
2023-02-11T05:10:59.294Z,99021.81
2023-02-11T05:13:28.518Z,99018.31
2023-02-11T05:15:56.407Z,99003.63
2023-02-11T05:18:24.384Z,98996.69
2023-02-11T05:20:52.161Z,98992.41
2023-02-11T05:23:19.873Z,98997.59
2023-02-11T05:25:47.642Z,98999.38
2023-02-11T05:28:15.413Z,98983.84
2023-02-11T05:30:44.591Z,98983.03
2023-02-11T05:33:12.397Z,98984.78
2023-02-11T05:35:40.168Z,98997.81
2023-02-11T05:38:07.950Z,99003.06
2023-02-11T05:40:35.708Z,99018.66
2023-02-11T05:43:03.463Z,99022.13
2023-02-11T05:45:31.452Z,99027.34
2023-02-11T05:48:00.767Z,99032.53
2023-02-11T05:50:28.506Z,99021.28
2023-02-11T05:52:56.365Z,99025.56
2023-02-11T05:55:24.334Z,99015.13
2023-02-11T05:57:52.050Z,99013.38
2023-02-11T06:00:20.211Z,99017.66
2023-02-11T06:02:48.074Z,99022.00
2023-02-11T06:05:17.318Z,99028.06
2023-02-11T06:07:45.065Z,99021.97
2023-02-11T06:10:13.246Z,99038.34
2023-02-11T06:12:41.047Z,99037.47
2023-02-11T06:15:09.256Z,99013.31
2023-02-11T06:17:37.488Z,99034.88
2023-02-11T06:20:06.784Z,99034.00
2023-02-11T06:22:36.150Z,99032.28
2023-02-11T06:25:04.147Z,99010.72
2023-02-11T06:27:32.145Z,99036.56
2023-02-11T06:29:59.876Z,99031.38
2023-02-11T06:32:45.369Z,99039.19
2023-02-11T06:35:13.889Z,99040.94
2023-02-11T06:37:43.528Z,99037.44
2023-02-11T06:40:12.509Z,99024.47
2023-02-11T06:42:40.377Z,99034.81
2023-02-11T06:45:09.573Z,99034.78
2023-02-11T06:47:37.446Z,99028.72
2023-02-11T06:50:05.894Z,99033.94
2023-02-11T06:52:33.767Z,99028.72
2023-02-11T06:55:02.885Z,99028.78
2023-02-11T06:57:31.344Z,99029.63
2023-02-11T06:59:59.154Z,99025.34
2023-02-11T07:02:26.957Z,99023.63
2023-02-11T07:04:54.888Z,99030.59
2023-02-11T07:07:22.718Z,99019.31
2023-02-11T07:09:50.512Z,99020.22
2023-02-11T07:12:19.641Z,99022.81
2023-02-11T07:14:47.396Z,99022.81
2023-02-11T07:17:15.607Z,99001.22
2023-02-11T07:19:43.578Z,99021.09
2023-02-11T07:22:11.344Z,99026.28
2023-02-11T07:24:39.256Z,99032.34
2023-02-11T07:27:10.229Z,99035.81
2023-02-11T07:29:39.415Z,99034.03
2023-02-11T07:32:07.434Z,99016.78
2023-02-11T07:34:35.484Z,99027.13
2023-02-11T07:37:03.256Z,99041.75
2023-02-11T07:39:31.043Z,99050.38
2023-02-11T07:41:58.811Z,99049.47
2023-02-11T07:44:26.693Z,99048.59
2023-02-11T07:46:55.834Z,99048.56
2023-02-11T07:49:24.020Z,99052.84
2023-02-11T07:51:53.290Z,99032.06
2023-02-11T07:54:21.805Z,99032.88
2023-02-11T07:56:49.751Z,99034.63
2023-02-11T07:59:18.448Z,99045.88
2023-02-11T08:01:47.637Z,99035.44
2023-02-11T08:04:23.339Z,99043.22
2023-02-11T08:06:52.923Z,99050.13
2023-02-11T08:09:22.370Z,99056.16
2023-02-11T08:11:51.251Z,99059.59
2023-02-11T08:14:20.947Z,99062.16
2023-02-11T08:16:48.725Z,99059.53
2023-02-11T08:19:18.623Z,99070.75
2023-02-11T08:21:47.189Z,99069.88
2023-02-11T08:24:15.345Z,99065.50
2023-02-11T08:26:43.659Z,99067.97
2023-02-11T08:29:13.597Z,99073.94
2023-02-11T08:31:43.459Z,99059.13
2023-02-11T08:34:14.395Z,99070.16
2023-02-11T08:36:44.894Z,99065.84
2023-02-11T08:39:19.663Z,99071.06
2023-02-11T08:41:49.553Z,99065.91
2023-02-11T08:44:18.218Z,99039.03
2023-02-11T08:46:46.312Z,99067.41
2023-02-11T08:49:14.534Z,99070.75
2023-02-11T08:51:44.196Z,99070.63
2023-02-11T08:54:12.765Z,99073.19
2023-02-11T08:56:40.861Z,99071.31
2023-02-11T08:59:09.634Z,99058.38
2023-02-11T09:01:37.926Z,99065.28
2023-02-11T09:04:06.741Z,99079.09
2023-02-11T09:06:34.664Z,99091.50
2023-02-11T09:09:04.586Z,99080.31
2023-02-11T09:11:34.478Z,99082.88
2023-02-11T09:14:02.408Z,99088.91
2023-02-11T09:16:33.027Z,99089.69
2023-02-11T09:19:02.345Z,99094.03
2023-02-11T09:21:30.564Z,99093.22
2023-02-11T09:23:58.763Z,99097.56
2023-02-11T09:26:29.788Z,99099.22
2023-02-11T09:28:58.242Z,99106.09
2023-02-11T09:31:28.504Z,99113.84
2023-02-11T09:33:58.484Z,99120.78
2023-02-11T09:36:28.966Z,99122.50
2023-02-11T09:39:02.232Z,99109.50
2023-02-11T09:41:49.639Z,99122.47
2023-02-11T09:44:23.263Z,99134.63
2023-02-11T09:46:55.818Z,99132.94
2023-02-11T09:49:28.484Z,99111.47
2023-02-11T09:52:00.122Z,99140.06
2023-02-11T09:54:30.385Z,99134.81
2023-02-11T09:56:59.835Z,99138.22
2023-02-11T09:59:28.002Z,99139.97
2023-02-11T10:02:00.425Z,99137.34
2023-02-11T10:04:44.539Z,99151.31
2023-02-11T10:07:19.781Z,99153.94
2023-02-11T10:09:58.784Z,99161.81
2023-02-11T10:12:39.146Z,99162.66
2023-02-11T10:15:19.258Z,99165.22
2023-02-11T10:17:58.045Z,99172.16
2023-02-11T10:20:33.459Z,99167.81
2023-02-11T10:23:03.110Z,99169.56
2023-02-11T10:25:35.432Z,99173.00
2023-02-11T10:28:14.308Z,99166.03
2023-02-11T10:30:45.443Z,99139.31
2023-02-11T10:33:18.237Z,99165.13
2023-02-11T10:35:46.273Z,99166.88
2023-02-11T10:38:14.844Z,99167.69
2023-02-11T10:40:42.979Z,99165.00
2023-02-11T10:43:15.510Z,99162.31
2023-02-11T10:45:45.385Z,99153.63
2023-02-11T10:48:39.978Z,99157.00
2023-02-11T10:51:19.368Z,99154.25
2023-02-11T10:53:47.976Z,99137.72
2023-02-11T10:56:23.327Z,99134.09
2023-02-11T10:58:59.788Z,99130.50
2023-02-11T11:01:41.267Z,99134.66
2023-02-11T11:04:33.779Z,99132.84
2023-02-11T11:07:13.367Z,99130.13
2023-02-11T11:09:48.596Z,99131.81
2023-02-11T11:12:36.332Z,99115.25
2023-02-11T11:15:19.970Z,99123.06
2023-02-11T11:17:48.452Z,99127.50
2023-02-11T11:20:28.205Z,99119.81
2023-02-11T11:23:10.928Z,99117.22
2023-02-11T11:25:41.170Z,99090.53
2023-02-11T11:28:21.793Z,99127.69
2023-02-11T11:30:53.023Z,99125.97
2023-02-11T11:33:22.761Z,99123.34
2023-02-11T11:36:04.032Z,99112.19
2023-02-11T11:38:33.204Z,99133.81
2023-02-11T11:41:32.532Z,99138.25
2023-02-11T11:44:03.948Z,99126.97
2023-02-11T11:46:35.817Z,99131.94
2023-02-11T11:49:11.347Z,99141.50
2023-02-11T11:51:40.708Z,99145.84
2023-02-11T11:54:12.499Z,99134.44
2023-02-11T11:56:43.924Z,99136.84
2023-02-11T11:59:13.528Z,99133.19
2023-02-11T12:01:49.550Z,99134.78
2023-02-11T12:04:29.660Z,99130.38
2023-02-11T12:07:06.843Z,99126.00
2023-02-11T12:09:43.079Z,99119.00
2023-02-11T12:12:32.150Z,99126.53
2023-02-11T12:15:09.270Z,99124.50
2023-02-11T12:18:01.123Z,99131.41
2023-02-11T12:20:34.056Z,99126.34
2023-02-11T12:23:16.676Z,99133.34
2023-02-11T12:25:48.348Z,99130.84
2023-02-11T12:28:24.938Z,99134.09
2023-02-11T12:31:06.771Z,99130.56
2023-02-11T12:33:51.093Z,99125.28
2023-02-11T12:36:28.650Z,99128.66
2023-02-11T12:39:08.718Z,99121.91
2023-02-11T12:42:06.093Z,99127.13
2023-02-11T12:44:40.224Z,99125.28
2023-02-11T12:47:15.789Z,99119.16
2023-02-11T12:50:03.726Z,99118.94
2023-02-11T12:52:41.989Z,99114.56
2023-02-11T12:55:16.073Z,99118.06
2023-02-11T12:57:44.903Z,99122.50
2023-02-11T13:00:18.716Z,99115.56
2023-02-11T13:02:51.098Z,99112.06
2023-02-11T13:05:28.223Z,99114.56
2023-02-11T13:08:00.602Z,99117.09
2023-02-11T13:10:31.806Z,99113.56
2023-02-11T13:13:18.239Z,99081.56
2023-02-11T13:15:49.749Z,99109.22
2023-02-11T13:18:48.303Z,99099.72
2023-02-11T13:21:39.784Z,99100.59
2023-02-11T13:24:15.463Z,99095.31
2023-02-11T13:26:48.466Z,99102.28
2023-02-11T13:29:27.548Z,99101.38
2023-02-11T13:31:56.719Z,99100.50
2023-02-11T13:34:26.146Z,99097.75
2023-02-11T13:36:58.846Z,99101.97
2023-02-11T13:39:26.597Z,99097.59
2023-02-11T13:42:03.508Z,99084.44
2023-02-11T13:44:34.618Z,99082.66
2023-02-11T13:47:04.740Z,99084.38
2023-02-11T13:49:36.434Z,99092.16
2023-02-11T13:52:07.598Z,99094.59
2023-02-11T13:54:39.419Z,99093.72
2023-02-11T13:57:30.946Z,99089.41
2023-02-11T13:59:59.853Z,99093.84
2023-02-11T14:02:50.339Z,99094.72
2023-02-11T14:05:46.169Z,99095.56
2023-02-11T14:08:42.968Z,99105.06
2023-02-11T14:11:45.163Z,99102.44
2023-02-11T14:14:18.354Z,99099.84
2023-02-11T14:17:21.777Z,99106.91
2023-02-11T14:19:50.474Z,99101.75
2023-02-11T14:22:21.226Z,99097.34
2023-02-11T14:24:53.440Z,99094.75
2023-02-11T14:27:31.224Z,99089.53
2023-02-11T14:30:16.053Z,99060.28
2023-02-11T14:32:52.926Z,99094.72
2023-02-11T14:35:25.210Z,99089.53
2023-02-11T14:37:56.963Z,99088.63
2023-02-11T14:40:30.421Z,99097.34
2023-02-11T14:42:59.787Z,99087.75
2023-02-11T14:45:29.333Z,99087.75
2023-02-11T14:48:02.775Z,99096.44
2023-02-11T14:50:35.319Z,99086.75
2023-02-11T14:53:06.253Z,99096.34
2023-02-11T14:55:37.143Z,99105.03
2023-02-11T14:58:09.865Z,99098.03
2023-02-11T15:00:37.647Z,99106.75
2023-02-11T15:03:05.409Z,99113.84
2023-02-11T15:05:33.111Z,99122.50
2023-02-11T15:08:03.877Z,99120.09
2023-02-11T15:10:36.141Z,99128.94
2023-02-11T15:13:04.839Z,99094.50
2023-02-11T15:15:33.269Z,99114.19
2023-02-11T15:18:03.174Z,99126.34
2023-02-11T15:20:32.869Z,99124.66
2023-02-11T15:23:04.993Z,99120.38
2023-02-11T15:25:34.244Z,99127.25
2023-02-11T15:28:12.902Z,99122.19
2023-02-11T15:30:40.632Z,99116.22
2023-02-11T15:33:23.083Z,99121.31
2023-02-11T15:35:51.800Z,99133.44
2023-02-11T15:38:19.635Z,99130.97
2023-02-11T15:40:54.002Z,99132.00
2023-02-11T15:43:23.466Z,99135.44
2023-02-11T15:45:57.954Z,99135.38
2023-02-11T15:48:27.687Z,99149.91
2023-02-11T15:50:57.240Z,99144.66
2023-02-11T15:53:28.626Z,99152.63
2023-02-11T15:56:02.581Z,99145.63
2023-02-11T15:58:37.538Z,99155.94
2023-02-11T16:01:06.778Z,99129.09
2023-02-11T16:03:34.617Z,99156.59
2023-02-11T16:06:20.048Z,99151.38
2023-02-11T16:09:05.222Z,99165.31
2023-02-11T16:11:34.153Z,99154.06
2023-02-11T16:14:07.119Z,99158.44
2023-02-11T16:16:35.984Z,99155.03
2023-02-11T16:19:06.167Z,99162.91
2023-02-11T16:21:38.848Z,99138.78
2023-02-11T16:24:07.398Z,99156.94
2023-02-11T16:26:37.670Z,99170.03
2023-02-11T16:29:09.437Z,99167.44
2023-02-11T16:31:38.587Z,99176.16
2023-02-11T16:34:13.450Z,99175.41
2023-02-11T16:36:41.187Z,99180.53
2023-02-11T16:39:08.995Z,99175.31
2023-02-11T16:41:36.702Z,99180.53
2023-02-11T16:44:04.690Z,99177.03
2023-02-11T16:46:34.347Z,99182.31
2023-02-11T16:49:10.310Z,99179.75
2023-02-11T16:51:40.819Z,99177.16
2023-02-11T16:54:08.814Z,99178.13
2023-02-11T16:56:36.560Z,99176.44
2023-02-11T16:59:04.299Z,99184.31
2023-02-11T17:01:33.916Z,99179.13
2023-02-11T17:04:02.095Z,99176.50
2023-02-11T17:06:30.013Z,99183.50
2023-02-11T17:08:57.749Z,99189.66
2023-02-11T17:11:25.516Z,99191.34
2023-02-11T17:13:53.269Z,99201.81
2023-02-11T17:16:24.956Z,99191.53
2023-02-11T17:18:54.868Z,99213.22
2023-02-11T17:21:27.574Z,99207.13
2023-02-11T17:23:56.565Z,99209.72
2023-02-11T17:26:24.309Z,99209.72
2023-02-11T17:28:52.023Z,99214.91
2023-02-11T17:31:20.069Z,99213.16
2023-02-11T17:33:48.476Z,99214.84
2023-02-11T17:36:17.613Z,99222.69
2023-02-11T17:38:45.326Z,99227.03
2023-02-11T17:41:13.104Z,99220.13
2023-02-11T17:43:40.868Z,99221.03
2023-02-11T17:46:10.023Z,99221.03
2023-02-11T17:48:38.569Z,99224.53
2023-02-11T17:51:08.783Z,99222.88
2023-02-11T17:53:37.886Z,99225.47
2023-02-11T17:56:07.296Z,99226.38
2023-02-11T17:58:35.032Z,99229.81
2023-02-11T18:01:02.840Z,99224.59
2023-02-11T18:03:30.673Z,99238.47
2023-02-11T18:06:00.845Z,99228.09
2023-02-11T18:08:28.585Z,99222.81
2023-02-11T18:10:57.805Z,99228.91
2023-02-11T18:13:25.609Z,99234.13
2023-02-11T18:15:53.612Z,99235.00
2023-02-11T18:18:21.594Z,99234.13
2023-02-11T18:20:56.989Z,99234.19
2023-02-11T18:23:24.726Z,99233.31
2023-02-11T18:25:52.757Z,99236.81
2023-02-11T18:28:22.145Z,99227.25
2023-02-11T18:30:49.910Z,99232.50
2023-02-11T18:33:17.671Z,99235.16
2023-02-11T18:35:45.917Z,99231.69
2023-02-11T18:38:13.690Z,99229.97
2023-02-11T18:40:41.605Z,99222.22
2023-02-11T18:43:09.407Z,99213.53
2023-02-11T18:45:38.514Z,99222.28
2023-02-11T18:48:07.007Z,99218.84
2023-02-11T18:50:34.734Z,99219.72
2023-02-11T18:53:02.502Z,99226.69
2023-02-11T18:55:30.365Z,99219.81
2023-02-11T18:57:58.181Z,99219.81
2023-02-11T19:00:26.116Z,99221.56
2023-02-11T19:02:55.227Z,99223.34
2023-02-11T19:05:23.008Z,99226.13
2023-02-11T19:07:50.793Z,99225.25
2023-02-11T19:10:18.861Z,99228.69
2023-02-11T19:12:46.643Z,99233.13
2023-02-11T19:15:15.133Z,99233.19
2023-02-11T19:17:42.985Z,99238.41
2023-02-11T19:20:12.898Z,99244.50
2023-02-11T19:22:40.655Z,99242.69
2023-02-11T19:25:08.711Z,99234.78
2023-02-11T19:27:37.609Z,99225.25
2023-02-11T19:30:05.919Z,99232.16
2023-02-11T19:32:34.046Z,99239.13
2023-02-11T19:35:01.771Z,99250.41
2023-02-11T19:37:30.969Z,99247.81
2023-02-11T19:39:58.687Z,99247.88
2023-02-11T19:42:27.770Z,99259.19
2023-02-11T19:44:55.561Z,99254.78
2023-02-11T19:47:27.769Z,99259.09
2023-02-11T19:49:55.873Z,99257.34
2023-02-11T19:52:23.649Z,99261.63
2023-02-11T19:54:53.027Z,99253.81
2023-02-11T19:57:20.905Z,99267.72
2023-02-11T19:59:49.812Z,99272.06
2023-02-11T20:02:18.778Z,99271.19
2023-02-11T20:04:46.548Z,99261.63
2023-02-11T20:07:14.418Z,99265.97
2023-02-11T20:09:42.646Z,99262.50
2023-02-11T20:12:12.147Z,99273.03
2023-02-11T20:14:40.089Z,99277.38
2023-02-11T20:17:07.819Z,99284.31
2023-02-11T20:19:35.758Z,99278.22
2023-02-11T20:22:03.481Z,99279.88
2023-02-11T20:24:31.246Z,99285.91
2023-02-11T20:26:59.077Z,99291.97
2023-02-11T20:29:32.058Z,99285.00
2023-02-11T20:32:00.692Z,99290.31
2023-02-11T20:34:29.500Z,99292.06
2023-02-11T20:36:57.531Z,99288.50
2023-02-11T20:39:26.861Z,99284.13
2023-02-11T20:41:55.060Z,99286.66
2023-02-11T20:44:23.351Z,99292.72
2023-02-11T20:46:54.067Z,99288.38
2023-02-11T20:49:24.347Z,99297.97
2023-02-11T20:51:53.687Z,99291.94
2023-02-11T20:54:22.372Z,99297.13
2023-02-11T20:56:51.798Z,99290.16
2023-02-11T20:59:20.973Z,99285.91
2023-02-11T21:01:50.810Z,99283.31
2023-02-11T21:04:21.779Z,99285.03
2023-02-11T21:06:52.188Z,99253.91
2023-02-11T21:09:22.000Z,99282.59
2023-02-11T21:11:51.301Z,99286.09
2023-02-11T21:14:20.292Z,99286.19
2023-02-11T21:16:48.785Z,99280.16
2023-02-11T21:19:17.042Z,99264.59
2023-02-11T21:21:46.405Z,99269.75
2023-02-11T21:24:14.308Z,99273.22
2023-02-11T21:26:42.193Z,99275.81
2023-02-11T21:29:10.385Z,99274.97
2023-02-11T21:31:38.363Z,99270.63
2023-02-11T21:34:07.256Z,99258.50
2023-02-11T21:36:35.614Z,99278.44
2023-02-11T21:39:05.999Z,99274.06
2023-02-11T21:41:33.798Z,99285.41
2023-02-11T21:44:01.759Z,99285.41
2023-02-11T21:46:29.602Z,99282.81
2023-02-11T21:48:58.378Z,99281.13
2023-02-11T21:51:26.993Z,99279.47
2023-02-11T21:53:55.757Z,99289.06
2023-02-11T21:56:26.377Z,99286.53
2023-02-11T21:58:55.753Z,99291.84
2023-02-11T22:01:25.446Z,99261.72
2023-02-11T22:03:53.368Z,99307.56
2023-02-11T22:06:23.249Z,99308.44
2023-02-11T22:08:51.348Z,99309.31
2023-02-11T22:11:19.802Z,99306.69
2023-02-11T22:13:49.246Z,99303.16
2023-02-11T22:16:18.057Z,99308.28
2023-02-11T22:18:46.518Z,99312.66
2023-02-11T22:21:17.657Z,99311.75
2023-02-11T22:23:45.926Z,99290.19
2023-02-11T22:26:16.172Z,99315.16
2023-02-11T22:28:44.134Z,99314.28
2023-02-11T22:31:15.329Z,99309.88
2023-02-11T22:33:43.356Z,99312.44
2023-02-11T22:36:15.991Z,99324.63
2023-02-11T22:38:43.738Z,99322.88
2023-02-11T22:41:12.192Z,99327.19
2023-02-11T22:43:40.415Z,99304.56
2023-02-11T22:46:08.796Z,99307.16
2023-02-11T22:48:38.013Z,99314.94
2023-02-11T22:51:06.689Z,99311.47
2023-02-11T22:53:34.994Z,99314.09
2023-02-11T22:56:04.469Z,99315.84
2023-02-11T22:58:32.575Z,99307.22
2023-02-11T23:01:00.357Z,99297.66
2023-02-11T23:03:28.702Z,99306.38
2023-02-11T23:05:58.786Z,99311.56
2023-02-11T23:08:27.478Z,99284.00
2023-02-11T23:10:55.280Z,99319.47
2023-02-11T23:13:23.212Z,99321.22
2023-02-11T23:15:51.052Z,99322.06
2023-02-11T23:18:18.943Z,99321.22
2023-02-11T23:20:47.047Z,99325.53
2023-02-11T23:23:18.291Z,99331.59
2023-02-11T23:25:46.481Z,99313.38
2023-02-11T23:28:14.646Z,99326.44
2023-02-11T23:30:42.691Z,99325.53
2023-02-11T23:33:10.819Z,99331.59
2023-02-11T23:35:43.446Z,99328.13
2023-02-11T23:38:11.443Z,99331.59
2023-02-11T23:40:40.834Z,99330.72
2023-02-11T23:43:10.438Z,99335.09
2023-02-11T23:45:38.467Z,99329.00
2023-02-11T23:48:06.495Z,99323.78
2023-02-11T23:50:35.936Z,99327.25
2023-02-11T23:53:04.178Z,99325.53
2023-02-11T23:55:32.620Z,99331.66
2023-02-11T23:58:02.277Z,99336.00
